Time;durP1;ratioP1;P1;durP2;ratioP2;P2;SDS_P1;SDS_P2;PMS_P1;PMS_P2;Temp;Humidity;BMP_temperature;BMP_pressure;BME280_temperature;BME280_humidity;BME280_pressure;Samples;Min_cycle;Max_cycle;Signal;HPM_P1;HPM_P2
2022/05/11 00:01:32;;;;;;;;;;;16.20;81.10;;;;;;5058126;28;19909;-63
2022/05/11 00:03:58;;;;;;;;;;;16.20;81.40;;;;;;5050242;28;20323;-63
2022/05/11 00:06:25;;;;;;;;;;;16.10;81.50;;;;;;5052823;28;19905;-63
2022/05/11 00:08:52;;;;;;;;;;;16.10;81.90;;;;;;5049828;28;20003;-63
2022/05/11 00:11:17;;;;;;;;;;;16.10;82.00;;;;;;5050078;28;20449;-63
2022/05/11 00:13:44;;;;;;;;;;;16.10;81.80;;;;;;5053938;28;19909;-63
2022/05/11 00:16:09;;;;;;;;;;;16.10;81.80;;;;;;5052928;28;19920;-63
2022/05/11 00:18:35;;;;;;;;;;;16.10;81.80;;;;;;5049671;28;19912;-63
2022/05/11 00:21:00;;;;;;;;;;;16.10;81.70;;;;;;5054352;28;20298;-63
2022/05/11 00:23:26;;;;;;;;;;;16.10;81.80;;;;;;5053397;28;20026;-63
2022/05/11 00:25:51;;;;;;;;;;;16.10;81.70;;;;;;5057872;28;19912;-63
2022/05/11 00:28:17;;;;;;;;;;;16.10;81.50;;;;;;5055089;28;20390;-63
2022/05/11 00:30:42;;;;;;;;;;;16.10;81.30;;;;;;5052293;28;20543;-64
2022/05/11 00:33:10;;;;;;;;;;;16.10;81.20;;;;;;5052157;28;20435;-63
2022/05/11 00:35:36;;;;;;;;;;;16.10;81.10;;;;;;5053150;28;19951;-63
2022/05/11 00:38:02;;;;;;;;;;;16.10;80.90;;;;;;5072107;28;19947;-63
2022/05/11 00:40:28;;;;;;;;;;;16.10;80.80;;;;;;5055799;28;19913;-63
2022/05/11 00:42:53;;;;;;;;;;;16.10;80.70;;;;;;5049431;28;19915;-63
2022/05/11 00:45:19;;;;;;;;;;;16.10;80.80;;;;;;5051980;28;20007;-66
2022/05/11 00:47:51;;;;;;;;;;;16.10;80.90;;;;;;5054631;28;19919;-63
2022/05/11 00:50:21;;;;;;;;;;;16.00;81.20;;;;;;5049052;28;19904;-63
2022/05/11 00:52:49;;;;;;;;;;;16.00;81.40;;;;;;5052133;28;19912;-63
2022/05/11 00:55:20;;;;;;;;;;;16.00;81.30;;;;;;5051861;28;19916;-63
2022/05/11 00:58:01;;;;;;;;;;;16.00;81.10;;;;;;5049202;28;19912;-63
2022/05/11 01:00:27;;;;;;;;;;;16.00;81.00;;;;;;5054555;28;20003;-63
2022/05/11 01:03:07;;;;;;;;;;;16.00;80.80;;;;;;5057407;28;19979;-63
2022/05/11 01:05:32;;;;;;;;;;;16.00;80.70;;;;;;5052376;28;19904;-63
2022/05/11 01:07:58;;;;;;;;;;;16.00;80.50;;;;;;5053818;28;20458;-63
2022/05/11 01:10:28;;;;;;;;;;;16.10;80.40;;;;;;5054153;28;20284;-63
2022/05/11 01:12:56;;;;;;;;;;;16.10;80.40;;;;;;5054548;28;19931;-64
2022/05/11 01:15:22;;;;;;;;;;;16.10;80.40;;;;;;5054566;28;19912;-64
2022/05/11 01:17:48;;;;;;;;;;;16.10;80.30;;;;;;5052418;28;20283;-63
2022/05/11 01:20:16;;;;;;;;;;;16.10;80.30;;;;;;5052291;28;20364;-63
2022/05/11 01:23:05;;;;;;;;;;;16.00;80.30;;;;;;5055683;28;20353;-63
2022/05/11 01:25:31;;;;;;;;;;;16.10;80.50;;;;;;5050728;28;20276;-63
2022/05/11 01:28:02;;;;;;;;;;;16.00;81.00;;;;;;5049702;28;19954;-63
2022/05/11 01:30:28;;;;;;;;;;;16.00;81.30;;;;;;5048881;28;19912;-63
2022/05/11 01:32:55;;;;;;;;;;;16.00;81.30;;;;;;5054283;28;19905;-63
2022/05/11 01:35:39;;;;;;;;;;;16.00;81.20;;;;;;5050330;28;20245;-63
2022/05/11 01:38:30;;;;;;;;;;;15.90;81.20;;;;;;5063131;28;20060;-63
2022/05/11 01:40:56;;;;;;;;;;;15.90;81.40;;;;;;5051099;28;20288;-64
2022/05/11 01:43:23;;;;;;;;;;;15.90;82.20;;;;;;5048137;28;20345;-63
2022/05/11 01:45:49;;;;;;;;;;;15.80;82.90;;;;;;5050918;28;19967;-63
2022/05/11 01:48:14;;;;;;;;;;;15.80;83.10;;;;;;5048696;28;19909;-63
2022/05/11 01:50:40;;;;;;;;;;;15.80;83.20;;;;;;5051088;28;19913;-63
2022/05/11 01:53:06;;;;;;;;;;;15.80;83.40;;;;;;5051586;28;19995;-63
2022/05/11 01:55:32;;;;;;;;;;;15.80;83.30;;;;;;5048457;28;19951;-63
2022/05/11 01:57:58;;;;;;;;;;;15.80;83.10;;;;;;5056468;28;19923;-63
2022/05/11 02:00:23;;;;;;;;;;;15.80;83.60;;;;;;5053003;28;19905;-63
2022/05/11 02:02:49;;;;;;;;;;;15.80;83.30;;;;;;5051468;28;19995;-63
2022/05/11 02:07:58;;;;;;;;;;;15.70;84.20;;;;;;5053921;28;19942;-63
2022/05/11 02:10:25;;;;;;;;;;;15.70;84.90;;;;;;5048316;28;20002;-63
2022/05/11 02:12:51;;;;;;;;;;;15.70;85.40;;;;;;5053375;28;19995;-63
2022/05/11 02:15:17;;;;;;;;;;;15.60;85.60;;;;;;5053609;28;20027;-63
2022/05/11 02:17:43;;;;;;;;;;;15.60;85.90;;;;;;5049634;28;20360;-63
2022/05/11 02:20:10;;;;;;;;;;;15.60;86.20;;;;;;5047871;28;19963;-63
2022/05/11 02:22:36;;;;;;;;;;;15.60;86.90;;;;;;5048027;28;20368;-63
2022/05/11 02:25:01;;;;;;;;;;;15.50;87.30;;;;;;5053682;28;19962;-63
2022/05/11 02:27:27;;;;;;;;;;;15.50;87.60;;;;;;5050781;28;20376;-63
2022/05/11 02:29:52;;;;;;;;;;;15.50;87.80;;;;;;5050681;28;19909;-64
2022/05/11 02:32:18;;;;;;;;;;;15.50;87.80;;;;;;5053661;28;19947;-63
2022/05/11 02:37:28;;;;;;;;;;;15.50;87.40;;;;;;5049369;28;20003;-63
2022/05/11 02:39:53;;;;;;;;;;;15.50;86.80;;;;;;5054345;28;20026;-63
2022/05/11 02:42:18;;;;;;;;;;;15.60;86.40;;;;;;5058431;28;19908;-63
2022/05/11 02:44:44;;;;;;;;;;;15.60;86.10;;;;;;5058284;28;19908;-63
2022/05/11 02:47:10;;;;;;;;;;;15.70;85.70;;;;;;5052575;28;19909;-63
2022/05/11 02:49:35;;;;;;;;;;;15.70;85.20;;;;;;5051735;28;19908;-63
2022/05/11 02:52:00;;;;;;;;;;;15.70;84.70;;;;;;5051581;28;19908;-63
2022/05/11 02:54:26;;;;;;;;;;;15.80;84.20;;;;;;5051287;28;19915;-63
2022/05/11 02:56:51;;;;;;;;;;;15.80;83.80;;;;;;5056299;28;19962;-63
2022/05/11 02:59:17;;;;;;;;;;;15.90;83.40;;;;;;5056758;28;19915;-63
2022/05/11 03:01:43;;;;;;;;;;;15.90;83.10;;;;;;5053103;28;19904;-63
2022/05/11 03:04:08;;;;;;;;;;;15.90;82.80;;;;;;5051860;28;20215;-63
2022/05/11 03:06:34;;;;;;;;;;;15.90;82.50;;;;;;5066784;28;19978;-63
2022/05/11 03:08:59;;;;;;;;;;;15.90;83.00;;;;;;5055949;28;19904;-63
2022/05/11 03:11:25;;;;;;;;;;;16.00;82.20;;;;;;5061378;28;20000;-63
2022/05/11 03:13:50;;;;;;;;;;;16.00;82.00;;;;;;5056561;28;19943;-63
2022/05/11 03:16:16;;;;;;;;;;;16.00;81.90;;;;;;5050934;28;19939;-63
2022/05/11 03:18:41;;;;;;;;;;;16.00;81.70;;;;;;5056095;28;19908;-62
2022/05/11 03:21:07;;;;;;;;;;;16.00;81.50;;;;;;5068968;28;19908;-63
2022/05/11 03:23:32;;;;;;;;;;;16.00;81.40;;;;;;5053476;28;19950;-63
2022/05/11 03:25:58;;;;;;;;;;;15.90;81.30;;;;;;5053484;28;19962;-63
2022/05/11 03:28:24;;;;;;;;;;;15.90;81.40;;;;;;5050533;28;19905;-63
2022/05/11 03:30:49;;;;;;;;;;;15.90;81.40;;;;;;5053366;28;19922;-63
2022/05/11 03:35:59;;;;;;;;;;;15.80;81.40;;;;;;5050571;28;19920;-64
2022/05/11 03:38:24;;;;;;;;;;;15.90;81.30;;;;;;5055496;28;20324;-63
2022/05/11 03:40:50;;;;;;;;;;;15.90;81.20;;;;;;5058972;28;19935;-63
2022/05/11 03:43:16;;;;;;;;;;;15.90;81.00;;;;;;5056745;28;19920;-63
2022/05/11 03:45:41;;;;;;;;;;;15.90;80.90;;;;;;5052338;28;19995;-63
2022/05/11 03:48:07;;;;;;;;;;;15.90;80.80;;;;;;5068149;28;20468;-63
2022/05/11 03:50:33;;;;;;;;;;;15.90;80.70;;;;;;5052773;28;19909;-63
2022/05/11 03:52:59;;;;;;;;;;;15.90;80.90;;;;;;5050257;28;19923;-63
2022/05/11 03:55:25;;;;;;;;;;;15.90;81.10;;;;;;5055805;28;19908;-63
2022/05/11 03:57:50;;;;;;;;;;;15.90;81.10;;;;;;5055290;28;19912;-63
2022/05/11 04:00:19;;;;;;;;;;;15.90;80.90;;;;;;5050196;28;20335;-63
2022/05/11 04:02:45;;;;;;;;;;;15.90;80.70;;;;;;5065421;28;19912;-63
2022/05/11 04:05:11;;;;;;;;;;;15.90;80.50;;;;;;5052815;28;19908;-63
2022/05/11 04:07:37;;;;;;;;;;;15.90;80.40;;;;;;5049888;28;19948;-63
2022/05/11 04:10:03;;;;;;;;;;;15.90;80.40;;;;;;5058498;28;20387;-63
2022/05/11 04:12:30;;;;;;;;;;;16.00;80.10;;;;;;5052664;28;19917;-63
2022/05/11 04:14:55;;;;;;;;;;;16.00;80.00;;;;;;5047185;28;20160;-63
2022/05/11 04:17:21;;;;;;;;;;;16.00;79.80;;;;;;5058653;28;20344;-63
2022/05/11 04:19:46;;;;;;;;;;;16.00;79.60;;;;;;5049672;28;19921;-63
2022/05/11 04:22:12;;;;;;;;;;;16.00;79.40;;;;;;5049504;28;19922;-63
2022/05/11 04:24:37;;;;;;;;;;;16.10;79.40;;;;;;5049977;28;19963;-63
2022/05/11 04:27:03;;;;;;;;;;;16.10;79.10;;;;;;5053074;28;19947;-63
2022/05/11 04:29:28;;;;;;;;;;;16.10;78.90;;;;;;5048860;28;20003;-63
2022/05/11 04:31:57;;;;;;;;;;;16.10;78.90;;;;;;5068226;28;20015;-63
2022/05/11 04:34:23;;;;;;;;;;;16.10;78.80;;;;;;5053047;28;19962;-63
2022/05/11 04:36:49;;;;;;;;;;;16.10;78.70;;;;;;5052978;28;19916;-63
2022/05/11 04:39:14;;;;;;;;;;;16.10;78.70;;;;;;5052132;28;19905;-63
2022/05/11 04:41:40;;;;;;;;;;;16.10;78.70;;;;;;5053236;28;19904;-63
2022/05/11 04:44:05;;;;;;;;;;;16.20;78.50;;;;;;5053066;28;19908;-63
2022/05/11 04:46:33;;;;;;;;;;;16.20;78.50;;;;;;5053041;28;19905;-63
2022/05/11 04:49:19;;;;;;;;;;;16.20;78.40;;;;;;5068431;28;19905;-63
2022/05/11 04:51:45;;;;;;;;;;;16.20;78.30;;;;;;5068147;28;19913;-63
2022/05/11 04:54:11;;;;;;;;;;;16.20;78.30;;;;;;5052944;28;20410;-63
2022/05/11 04:56:38;;;;;;;;;;;16.20;78.20;;;;;;5052953;28;20427;-63
2022/05/11 04:59:05;;;;;;;;;;;16.20;78.20;;;;;;5051195;28;20354;-63
2022/05/11 05:01:30;;;;;;;;;;;16.30;78.10;;;;;;5052683;28;20360;-63
2022/05/11 05:03:56;;;;;;;;;;;16.30;78.00;;;;;;5052104;28;19930;-63
2022/05/11 05:06:21;;;;;;;;;;;16.30;77.80;;;;;;5053163;28;19958;-63
2022/05/11 05:08:46;;;;;;;;;;;16.30;77.80;;;;;;5052750;28;19959;-63
2022/05/11 05:11:12;;;;;;;;;;;16.30;77.80;;;;;;5052753;28;19916;-64
2022/05/11 05:13:38;;;;;;;;;;;16.40;77.80;;;;;;5050760;28;19962;-63
2022/05/11 05:16:03;;;;;;;;;;;16.30;77.80;;;;;;5066225;28;19915;-64
2022/05/11 05:18:29;;;;;;;;;;;16.40;77.90;;;;;;5052367;28;19958;-63
2022/05/11 05:20:55;;;;;;;;;;;16.40;77.90;;;;;;5052406;28;19971;-63
2022/05/11 05:23:21;;;;;;;;;;;16.40;77.90;;;;;;5052330;28;19911;-63
2022/05/11 05:25:47;;;;;;;;;;;16.40;77.90;;;;;;5068022;28;19909;-63
2022/05/11 05:31:06;;;;;;;;;;;16.50;77.90;;;;;;5052663;28;19928;-63
2022/05/11 05:33:33;;;;;;;;;;;16.50;77.70;;;;;;5051847;28;20372;-64
2022/05/11 05:35:59;;;;;;;;;;;16.50;77.60;;;;;;5050734;28;19958;-63
2022/05/11 05:38:24;;;;;;;;;;;16.60;77.60;;;;;;5050933;28;19905;-63
2022/05/11 05:40:50;;;;;;;;;;;16.50;77.60;;;;;;5050778;28;19905;-63
2022/05/11 05:43:15;;;;;;;;;;;16.50;77.60;;;;;;5050839;28;19909;-63
2022/05/11 05:45:46;;;;;;;;;;;16.60;77.60;;;;;;5050473;28;19913;-64
2022/05/11 05:48:11;;;;;;;;;;;16.50;77.60;;;;;;5050978;28;19920;-63
2022/05/11 05:50:37;;;;;;;;;;;16.60;77.60;;;;;;5051772;28;19904;-63
2022/05/11 05:53:03;;;;;;;;;;;16.60;77.50;;;;;;5050816;28;19904;-63
2022/05/11 05:55:28;;;;;;;;;;;16.60;77.40;;;;;;5051922;28;19955;-63
2022/05/11 05:57:53;;;;;;;;;;;16.60;77.40;;;;;;5051831;28;19905;-63
2022/05/11 06:00:19;;;;;;;;;;;16.60;77.10;;;;;;5052313;28;19904;-63
2022/05/11 06:02:45;;;;;;;;;;;16.70;77.20;;;;;;5052422;28;20284;-68
2022/05/11 06:05:11;;;;;;;;;;;16.60;77.10;;;;;;5050436;28;20384;-63
2022/05/11 06:07:37;;;;;;;;;;;16.70;77.20;;;;;;5067695;28;19911;-63
2022/05/11 06:10:02;;;;;;;;;;;16.70;77.00;;;;;;5052191;28;19904;-63
2022/05/11 06:12:28;;;;;;;;;;;16.70;77.00;;;;;;5055725;28;19916;-63
2022/05/11 06:14:53;;;;;;;;;;;16.80;77.10;;;;;;5055746;28;19927;-63
2022/05/11 06:17:20;;;;;;;;;;;16.80;76.80;;;;;;5055817;28;20292;-63
2022/05/11 06:19:45;;;;;;;;;;;16.70;76.60;;;;;;5055516;28;20464;-64
2022/05/11 06:22:11;;;;;;;;;;;16.80;76.60;;;;;;5071103;28;19952;-63
2022/05/11 06:24:36;;;;;;;;;;;16.80;76.60;;;;;;5055706;28;20280;-63
2022/05/11 06:27:03;;;;;;;;;;;16.80;76.60;;;;;;5055736;28;20373;-63
2022/05/11 06:29:28;;;;;;;;;;;16.90;76.50;;;;;;5055535;28;19952;-63
2022/05/11 06:31:54;;;;;;;;;;;16.90;75.90;;;;;;5055315;28;19951;-63
2022/05/11 06:34:19;;;;;;;;;;;16.90;75.20;;;;;;5055820;28;19931;-63
2022/05/11 06:36:44;;;;;;;;;;;16.90;74.70;;;;;;5070807;28;19915;-63
2022/05/11 06:39:10;;;;;;;;;;;16.90;73.70;;;;;;5055471;28;19909;-63
2022/05/11 06:41:36;;;;;;;;;;;17.00;72.90;;;;;;5055494;28;19908;-63
2022/05/11 06:44:03;;;;;;;;;;;17.00;72.30;;;;;;5055169;28;19909;-63
2022/05/11 06:46:28;;;;;;;;;;;17.10;72.00;;;;;;5055344;28;20380;-63
2022/05/11 06:48:54;;;;;;;;;;;17.10;71.50;;;;;;5055157;28;19911;-63
2022/05/11 06:51:19;;;;;;;;;;;17.20;71.10;;;;;;5055354;28;19999;-63
2022/05/11 06:59:24;;;;;;;;;;;17.20;70.10;;;;;;5053780;28;19916;-63
2022/05/11 07:01:54;;;;;;;;;;;17.20;70.10;;;;;;5053351;28;19927;-63
2022/05/11 07:04:22;;;;;;;;;;;17.30;70.20;;;;;;5053257;28;19911;-63
2022/05/11 07:06:49;;;;;;;;;;;17.30;70.30;;;;;;5053788;28;19950;-63
2022/05/11 07:09:14;;;;;;;;;;;17.30;70.10;;;;;;5055192;28;19911;-63
2022/05/11 07:14:24;;;;;;;;;;;17.30;68.90;;;;;;5054904;28;20361;-63
2022/05/11 07:16:49;;;;;;;;;;;17.40;68.60;;;;;;5054675;28;20003;-63
2022/05/11 07:19:15;;;;;;;;;;;17.40;68.80;;;;;;5054428;28;19999;-63
2022/05/11 07:21:40;;;;;;;;;;;17.40;69.00;;;;;;5054587;28;19961;-63
2022/05/11 07:24:06;;;;;;;;;;;17.50;69.00;;;;;;5053972;28;19957;-63
2022/05/11 07:26:31;;;;;;;;;;;17.70;69.00;;;;;;5054446;28;19905;-63
2022/05/11 07:28:56;;;;;;;;;;;17.80;68.30;;;;;;5054724;28;19951;-63
2022/05/11 07:31:22;;;;;;;;;;;17.80;67.60;;;;;;5054409;28;19951;-63
2022/05/11 07:33:47;;;;;;;;;;;17.80;66.70;;;;;;5054071;28;19909;-62
2022/05/11 07:36:13;;;;;;;;;;;17.80;66.50;;;;;;5054228;28;19909;-63
2022/05/11 07:38:40;;;;;;;;;;;17.70;65.60;;;;;;5054414;28;19915;-63
2022/05/11 07:41:06;;;;;;;;;;;17.70;65.30;;;;;;5054498;28;19916;-63
2022/05/11 07:43:31;;;;;;;;;;;17.70;65.40;;;;;;5054193;28;19905;-62
2022/05/11 07:45:57;;;;;;;;;;;17.70;65.40;;;;;;5069560;28;19905;-63
2022/05/11 07:48:23;;;;;;;;;;;17.80;65.20;;;;;;5054142;28;20379;-63
2022/05/11 07:50:49;;;;;;;;;;;17.80;65.00;;;;;;5054312;28;19909;-63
2022/05/11 07:53:15;;;;;;;;;;;17.80;64.20;;;;;;5054253;28;19928;-63
2022/05/11 07:55:40;;;;;;;;;;;17.90;63.60;;;;;;5053920;28;19916;-62
2022/05/11 08:00:50;;;;;;;;;;;17.90;62.60;;;;;;5053797;28;19923;-63
2022/05/11 08:03:15;;;;;;;;;;;17.90;62.50;;;;;;5069397;28;20000;-62
2022/05/11 08:05:41;;;;;;;;;;;17.90;62.80;;;;;;5053615;28;19991;-63
2022/05/11 08:08:07;;;;;;;;;;;18.00;62.20;;;;;;5053755;28;19980;-63
2022/05/11 08:10:40;;;;;;;;;;;18.00;61.60;;;;;;5054212;28;19912;-63
2022/05/11 08:13:07;;;;;;;;;;;18.20;61.50;;;;;;5053835;28;19908;-63
2022/05/11 08:15:34;;;;;;;;;;;18.20;61.90;;;;;;5053329;28;19908;-63
2022/05/11 08:18:00;;;;;;;;;;;18.40;61.60;;;;;;5053736;28;19905;-63
2022/05/11 08:20:28;;;;;;;;;;;18.40;61.70;;;;;;5053276;28;19923;-63
2022/05/11 08:22:54;;;;;;;;;;;18.50;61.30;;;;;;5053527;28;19905;-64
2022/05/11 08:25:20;;;;;;;;;;;18.60;60.80;;;;;;5053349;28;19912;-64
2022/05/11 08:27:46;;;;;;;;;;;18.60;60.70;;;;;;5053491;28;19908;-63
2022/05/11 08:35:43;;;;;;;;;;;18.90;60.90;;;;;;5052129;28;20291;-63
2022/05/11 08:38:10;;;;;;;;;;;18.90;60.20;;;;;;5053105;28;19909;-66
2022/05/11 08:40:36;;;;;;;;;;;18.90;60.40;;;;;;5052870;28;19905;-63
2022/05/11 08:43:02;;;;;;;;;;;19.00;60.70;;;;;;5068588;28;20008;-63
2022/05/11 08:45:39;;;;;;;;;;;19.00;61.00;;;;;;5052819;28;20352;-63
2022/05/11 08:48:07;;;;;;;;;;;19.00;61.00;;;;;;5052966;28;19928;-63
2022/05/11 08:50:33;;;;;;;;;;;19.20;61.70;;;;;;5052724;28;19930;-63
2022/05/11 08:53:02;;;;;;;;;;;19.30;61.20;;;;;;5052908;28;19905;-63
2022/05/11 08:55:45;;;;;;;;;;;19.30;60.60;;;;;;5052691;28;19908;-63
2022/05/11 08:58:21;;;;;;;;;;;19.40;60.60;;;;;;5052827;28;19904;-63
2022/05/11 09:00:48;;;;;;;;;;;19.40;60.50;;;;;;5052853;28;19911;-63
2022/05/11 09:03:27;;;;;;;;;;;19.40;60.60;;;;;;5052947;28;19938;-63
2022/05/11 09:05:53;;;;;;;;;;;19.40;60.00;;;;;;5052704;28;19912;-64
2022/05/11 09:08:18;;;;;;;;;;;19.30;60.00;;;;;;5052846;28;19912;-63
2022/05/11 09:10:45;;;;;;;;;;;19.30;60.70;;;;;;5052676;28;19991;-63
2022/05/11 09:13:13;;;;;;;;;;;19.20;60.50;;;;;;5052631;28;20254;-63
2022/05/11 09:15:47;;;;;;;;;;;19.10;60.60;;;;;;5052502;28;20136;-64
2022/05/11 09:18:13;;;;;;;;;;;19.20;61.00;;;;;;5052544;28;19905;-63
2022/05/11 09:20:43;;;;;;;;;;;19.20;61.30;;;;;;5052190;28;19928;-64
2022/05/11 09:23:08;;;;;;;;;;;19.20;61.70;;;;;;5052510;28;19952;-64
2022/05/11 09:25:36;;;;;;;;;;;19.20;62.10;;;;;;5052349;28;20351;-64
2022/05/11 09:28:19;;;;;;;;;;;19.30;62.20;;;;;;5052440;28;20357;-63
2022/05/11 09:31:05;;;;;;;;;;;19.40;62.20;;;;;;5052480;28;20003;-63
2022/05/11 09:33:38;;;;;;;;;;;19.50;62.00;;;;;;5052358;28;20007;-63
2022/05/11 09:36:05;;;;;;;;;;;19.40;61.90;;;;;;5052320;28;20409;-64
2022/05/11 09:38:38;;;;;;;;;;;19.50;61.50;;;;;;5052266;28;19947;-63
2022/05/11 09:41:18;;;;;;;;;;;19.50;60.80;;;;;;5052308;28;19911;-63
2022/05/11 09:43:49;;;;;;;;;;;19.60;61.00;;;;;;5052304;28;19904;-64
2022/05/11 09:46:17;;;;;;;;;;;19.50;60.90;;;;;;5054213;28;19911;-63
2022/05/11 09:49:01;;;;;;;;;;;19.60;61.40;;;;;;5056394;28;19905;-63
2022/05/11 09:51:26;;;;;;;;;;;19.70;61.60;;;;;;5056709;28;20391;-64
2022/05/11 09:53:57;;;;;;;;;;;19.80;61.30;;;;;;5055640;28;19909;-64
2022/05/11 09:56:31;;;;;;;;;;;19.70;60.80;;;;;;5055294;28;20011;-66
2022/05/11 09:59:15;;;;;;;;;;;19.70;61.10;;;;;;5054610;28;19908;-64
2022/05/11 10:01:40;;;;;;;;;;;19.70;60.90;;;;;;5053494;28;19912;-64
2022/05/11 10:04:07;;;;;;;;;;;19.80;61.30;;;;;;5054403;28;19913;-64
2022/05/11 10:06:39;;;;;;;;;;;19.90;62.00;;;;;;5053043;28;19911;-64
2022/05/11 10:09:05;;;;;;;;;;;19.90;61.60;;;;;;5054540;28;19909;-64
2022/05/11 10:11:37;;;;;;;;;;;20.00;61.10;;;;;;5053952;28;20315;-64
2022/05/11 10:22:33;;;;;;;;;;;20.20;60.20;;;;;;5053698;28;20380;-64
2022/05/11 10:25:05;;;;;;;;;;;20.20;59.70;;;;;;5054296;28;19972;-64
2022/05/11 10:27:36;;;;;;;;;;;20.30;59.50;;;;;;5054703;28;19959;-64
2022/05/11 10:30:14;;;;;;;;;;;20.30;60.00;;;;;;5054117;28;19905;-65
2022/05/11 10:32:58;;;;;;;;;;;20.40;59.80;;;;;;5054344;28;20538;-64
2022/05/11 10:35:26;;;;;;;;;;;20.50;60.20;;;;;;5053649;28;20011;-64
2022/05/11 10:37:54;;;;;;;;;;;20.60;59.70;;;;;;5069010;28;19905;-64
2022/05/11 10:40:26;;;;;;;;;;;20.70;59.00;;;;;;5069178;28;20327;-64
2022/05/11 10:43:10;;;;;;;;;;;20.70;58.70;;;;;;5053879;28;19905;-64
2022/05/11 10:45:58;;;;;;;;;;;20.60;58.60;;;;;;5053727;28;19905;-64
2022/05/11 10:48:53;;;;;;;;;;;20.80;59.50;;;;;;5068863;28;19912;-64
2022/05/11 10:51:26;;;;;;;;;;;20.90;59.30;;;;;;5051098;28;19995;-64
2022/05/11 10:54:05;;;;;;;;;;;21.10;58.80;;;;;;5051537;28;19905;-64
2022/05/11 10:56:39;;;;;;;;;;;21.20;58.80;;;;;;5053302;28;19915;-64
2022/05/11 10:59:10;;;;;;;;;;;21.30;57.60;;;;;;5052758;28;19905;-64
2022/05/11 11:01:45;;;;;;;;;;;21.40;57.60;;;;;;5053425;28;19911;-64
2022/05/11 11:04:21;;;;;;;;;;;21.40;57.30;;;;;;5053304;28;20406;-64
2022/05/11 11:09:35;;;;;;;;;;;21.60;57.30;;;;;;5052315;28;19911;-64
2022/05/11 11:12:13;;;;;;;;;;;21.60;57.10;;;;;;5053232;28;19905;-64
2022/05/11 11:14:41;;;;;;;;;;;21.70;57.20;;;;;;5053055;28;19908;-64
2022/05/11 11:17:08;;;;;;;;;;;21.80;57.00;;;;;;5053144;28;19913;-64
2022/05/11 11:19:34;;;;;;;;;;;21.90;56.70;;;;;;5053083;28;19952;-64
2022/05/11 11:22:01;;;;;;;;;;;21.80;56.20;;;;;;5053051;28;20865;-64
2022/05/11 11:24:28;;;;;;;;;;;21.90;56.00;;;;;;5052886;28;19944;-64
2022/05/11 11:26:58;;;;;;;;;;;22.10;55.50;;;;;;5053062;28;19962;-64
2022/05/11 11:29:33;;;;;;;;;;;22.20;55.70;;;;;;5068295;28;19905;-65
2022/05/11 11:31:59;;;;;;;;;;;22.40;54.90;;;;;;5052902;28;19904;-64
2022/05/11 11:34:27;;;;;;;;;;;22.60;54.60;;;;;;5052597;28;19904;-64
2022/05/11 11:36:55;;;;;;;;;;;22.80;54.00;;;;;;5052748;28;19912;-64
2022/05/11 11:39:39;;;;;;;;;;;22.80;54.00;;;;;;5052713;28;19956;-64
2022/05/11 11:42:06;;;;;;;;;;;22.80;54.20;;;;;;5052538;28;20341;-64
2022/05/11 11:44:43;;;;;;;;;;;22.90;54.30;;;;;;5052647;28;19905;-64
2022/05/11 11:47:33;;;;;;;;;;;23.00;53.70;;;;;;5052719;28;19905;-64
2022/05/11 11:49:59;;;;;;;;;;;23.30;53.20;;;;;;5052451;28;19935;-64
2022/05/11 11:52:38;;;;;;;;;;;23.40;52.80;;;;;;5052278;28;19913;-64
2022/05/11 11:55:13;;;;;;;;;;;23.50;52.80;;;;;;5052254;28;19911;-64
2022/05/11 11:57:38;;;;;;;;;;;23.50;52.20;;;;;;5052984;28;20210;-64
2022/05/11 12:00:25;;;;;;;;;;;23.70;51.80;;;;;;5054085;28;20039;-64
2022/05/11 12:02:51;;;;;;;;;;;23.70;49.80;;;;;;5053308;28;19991;-64
2022/05/11 12:05:29;;;;;;;;;;;23.60;49.90;;;;;;5052429;28;20328;-64
2022/05/11 12:16:53;;;;;;;;;;;23.90;49.10;;;;;;5050315;28;19955;-64
2022/05/11 12:19:19;;;;;;;;;;;24.00;49.50;;;;;;5050091;28;19920;-64
2022/05/11 12:22:03;;;;;;;;;;;24.20;49.70;;;;;;5051978;28;19912;-64
2022/05/11 12:24:32;;;;;;;;;;;24.10;48.90;;;;;;5051560;28;19909;-64
2022/05/11 12:27:00;;;;;;;;;;;24.20;49.50;;;;;;5051901;28;19954;-64
2022/05/11 12:32:10;;;;;;;;;;;24.30;48.20;;;;;;5051432;28;20032;-65
2022/05/11 12:34:43;;;;;;;;;;;24.50;49.40;;;;;;5052372;28;20376;-64
2022/05/11 12:37:22;;;;;;;;;;;24.70;49.20;;;;;;5053399;28;19928;-64
2022/05/11 12:39:53;;;;;;;;;;;24.90;49.00;;;;;;5053050;28;19909;-65
2022/05/11 12:42:30;;;;;;;;;;;24.90;47.40;;;;;;5053150;28;19904;-64
2022/05/11 12:44:56;;;;;;;;;;;24.80;47.50;;;;;;5053077;28;19959;-64
2022/05/11 12:47:21;;;;;;;;;;;24.90;48.20;;;;;;5053061;28;20288;-64
2022/05/11 12:49:48;;;;;;;;;;;25.00;47.10;;;;;;5052908;28;19915;-64
2022/05/11 12:52:17;;;;;;;;;;;24.90;47.00;;;;;;5052993;28;19905;-64
2022/05/11 12:54:53;;;;;;;;;;;25.10;47.50;;;;;;5051910;28;19912;-65
2022/05/11 12:57:19;;;;;;;;;;;25.10;46.50;;;;;;5051261;28;19909;-64
2022/05/11 12:59:49;;;;;;;;;;;25.00;46.80;;;;;;5051260;28;19911;-64
2022/05/11 13:02:19;;;;;;;;;;;24.80;45.10;;;;;;5064723;28;20000;-65
2022/05/11 13:04:48;;;;;;;;;;;24.90;46.00;;;;;;5051628;28;20418;-65
2022/05/11 13:07:13;;;;;;;;;;;25.10;46.10;;;;;;5048822;28;20052;-65
2022/05/11 13:09:45;;;;;;;;;;;25.40;46.00;;;;;;5051134;28;20425;-65
2022/05/11 13:12:13;;;;;;;;;;;25.50;45.70;;;;;;5048269;28;19904;-64
2022/05/11 13:14:46;;;;;;;;;;;25.50;45.70;;;;;;5050962;28;19908;-65
2022/05/11 13:17:24;;;;;;;;;;;25.70;46.10;;;;;;5050664;28;19919;-65
2022/05/11 13:20:13;;;;;;;;;;;25.80;45.70;;;;;;5049923;28;20235;-64
2022/05/11 13:22:38;;;;;;;;;;;25.90;45.30;;;;;;5048726;28;19919;-65
2022/05/11 13:25:06;;;;;;;;;;;25.90;45.00;;;;;;5050973;28;20391;-65
2022/05/11 13:27:49;;;;;;;;;;;25.90;44.80;;;;;;5049429;28;19912;-64
2022/05/11 13:30:17;;;;;;;;;;;25.60;43.90;;;;;;5051044;28;19912;-65
2022/05/11 13:32:45;;;;;;;;;;;25.40;45.20;;;;;;5051041;28;19908;-65
2022/05/11 13:35:14;;;;;;;;;;;25.60;45.50;;;;;;5050437;28;19909;-64
2022/05/11 13:37:39;;;;;;;;;;;25.50;44.80;;;;;;5050843;28;19931;-65
2022/05/11 13:40:05;;;;;;;;;;;25.40;45.00;;;;;;5050900;28;20352;-65
2022/05/11 13:42:30;;;;;;;;;;;25.20;45.50;;;;;;5050200;28;19905;-65
2022/05/11 13:45:00;;;;;;;;;;;25.10;45.90;;;;;;5050700;28;20007;-65
2022/05/11 13:50:27;;;;;;;;;;;25.50;46.20;;;;;;5048825;28;19911;-65
2022/05/11 13:53:12;;;;;;;;;;;25.40;46.30;;;;;;5047799;28;19912;-65
2022/05/11 13:55:39;;;;;;;;;;;25.70;46.50;;;;;;5048577;28;20008;-64
2022/05/11 13:58:23;;;;;;;;;;;26.00;45.90;;;;;;5050628;28;19905;-65
2022/05/11 14:00:57;;;;;;;;;;;26.20;46.10;;;;;;5050421;28;19913;-65
2022/05/11 14:03:27;;;;;;;;;;;26.10;45.30;;;;;;5050542;28;19908;-65
2022/05/11 14:05:52;;;;;;;;;;;26.00;45.40;;;;;;5047904;28;19904;-65
2022/05/11 14:08:17;;;;;;;;;;;26.10;45.40;;;;;;5050712;28;19904;-65
2022/05/11 14:10:43;;;;;;;;;;;26.40;46.00;;;;;;5050459;28;20024;-65
2022/05/11 14:13:08;;;;;;;;;;;26.60;45.70;;;;;;5052037;28;19951;-65
2022/05/11 14:15:34;;;;;;;;;;;26.70;45.50;;;;;;5051849;28;19964;-65
2022/05/11 14:17:59;;;;;;;;;;;26.80;45.50;;;;;;5052384;28;20337;-65
2022/05/11 14:20:26;;;;;;;;;;;26.90;45.30;;;;;;5051755;28;19920;-65
2022/05/11 14:22:51;;;;;;;;;;;27.00;45.20;;;;;;5051953;28;19908;-64
2022/05/11 14:25:18;;;;;;;;;;;26.70;43.90;;;;;;5052234;28;20272;-65
2022/05/11 14:27:44;;;;;;;;;;;26.40;44.40;;;;;;5050496;28;19905;-64
2022/05/11 14:30:10;;;;;;;;;;;26.40;45.00;;;;;;5051462;28;19909;-65
2022/05/11 14:32:37;;;;;;;;;;;26.50;45.30;;;;;;5052348;28;19905;-65
2022/05/11 14:35:05;;;;;;;;;;;26.60;45.00;;;;;;5052100;28;19909;-65
2022/05/11 14:37:30;;;;;;;;;;;26.50;44.30;;;;;;5055159;28;19963;-66
2022/05/11 14:39:59;;;;;;;;;;;26.50;44.80;;;;;;5055419;28;19909;-64
2022/05/11 14:42:24;;;;;;;;;;;26.70;44.90;;;;;;5055239;28;20361;-65
2022/05/11 14:44:50;;;;;;;;;;;26.70;44.40;;;;;;5055331;28;19916;-65
2022/05/11 14:47:15;;;;;;;;;;;26.60;44.80;;;;;;5055421;28;19963;-65
2022/05/11 14:49:42;;;;;;;;;;;26.70;44.80;;;;;;5054411;28;19912;-65
2022/05/11 14:52:07;;;;;;;;;;;26.70;44.30;;;;;;5068918;28;20019;-65
2022/05/11 14:54:33;;;;;;;;;;;26.60;44.10;;;;;;5066915;28;19996;-65
2022/05/11 15:02:27;;;;;;;;;;;26.60;45.20;;;;;;5035126;28;20378;-65
2022/05/11 15:04:53;;;;;;;;;;;26.70;45.30;;;;;;5034220;28;19905;-65
2022/05/11 15:07:18;;;;;;;;;;;26.60;44.50;;;;;;5035154;28;20284;-65
2022/05/11 15:09:44;;;;;;;;;;;26.50;44.40;;;;;;5034870;28;20280;-65
2022/05/11 15:14:54;;;;;;;;;;;25.90;44.30;;;;;;5043538;28;19920;-65
2022/05/11 15:17:21;;;;;;;;;;;25.50;44.90;;;;;;5052875;28;20330;-65
2022/05/11 15:19:47;;;;;;;;;;;25.40;45.70;;;;;;5051479;28;19925;-65
2022/05/11 15:22:13;;;;;;;;;;;25.30;45.90;;;;;;5052737;28;19905;-66
2022/05/11 15:24:39;;;;;;;;;;;25.30;46.00;;;;;;5052568;28;19908;-65